createdAt,value
2017-07-19T00:00:07.977Z,18.72
2017-07-19T00:01:16.945Z,18.66
2017-07-19T00:02:25.904Z,18.69
2017-07-19T00:03:35.205Z,18.5
2017-07-19T00:04:44.166Z,18.55
2017-07-19T00:05:53.454Z,18.63
2017-07-19T00:07:02.411Z,18.58
2017-07-19T00:08:11.369Z,18.55
2017-07-19T00:09:20.343Z,18.54
2017-07-19T00:10:29.313Z,18.52
2017-07-19T00:11:38.293Z,18.5
2017-07-19T00:12:47.251Z,18.45
2017-07-19T00:13:56.214Z,18.44
2017-07-19T00:15:05.198Z,18.51
2017-07-19T00:16:14.188Z,18.52
2017-07-19T00:17:23.162Z,18.5
2017-07-19T00:18:32.127Z,18.52
2017-07-19T00:19:41.114Z,18.55
2017-07-19T00:20:50.069Z,18.54
2017-07-19T00:21:59.040Z,18.42
2017-07-19T00:23:07.996Z,18.52
2017-07-19T00:24:16.963Z,18.44
2017-07-19T00:25:25.918Z,18.42
2017-07-19T00:26:37.708Z,18.33
2017-07-19T00:27:49.135Z,18.42
2017-07-19T00:29:01.396Z,18.45
2017-07-19T00:30:11.171Z,18.52
2017-07-19T00:31:21.455Z,18.39
2017-07-19T00:32:31.718Z,18.29
2017-07-19T00:33:41.037Z,18.37
2017-07-19T00:34:50.109Z,18.35
2017-07-19T00:35:59.190Z,18.26
2017-07-19T00:37:08.207Z,18.27
2017-07-19T00:38:17.271Z,18.33
2017-07-19T00:39:26.269Z,18.25
2017-07-19T00:40:35.230Z,18.27
2017-07-19T00:41:44.212Z,18.15
2017-07-19T00:42:53.180Z,18.12
2017-07-19T00:44:02.138Z,18.14
2017-07-19T00:45:11.100Z,18.08
2017-07-19T00:46:20.068Z,18.17
2017-07-19T00:47:29.351Z,18.08
2017-07-19T00:48:38.552Z,18.08
2017-07-19T00:49:47.798Z,18.08
2017-07-19T00:50:56.910Z,18.11
2017-07-19T00:52:05.865Z,18.1
2017-07-19T00:53:15.144Z,18.12
2017-07-19T00:54:24.227Z,18.07
2017-07-19T00:55:33.190Z,18.07
2017-07-19T00:56:42.476Z,17.97
2017-07-19T00:57:51.431Z,17.97
2017-07-19T00:59:00.392Z,18.02
2017-07-19T01:00:09.604Z,17.89
2017-07-19T01:01:18.729Z,17.89
2017-07-19T01:02:27.755Z,17.87
2017-07-19T01:03:36.931Z,17.9
2017-07-19T01:04:45.958Z,17.87
2017-07-19T01:05:55.063Z,17.84
2017-07-19T01:07:04.069Z,17.87
2017-07-19T01:08:13.294Z,17.84
2017-07-19T01:09:22.251Z,17.84
2017-07-19T01:10:31.216Z,17.89
2017-07-19T01:11:40.226Z,17.89
2017-07-19T01:12:49.470Z,17.82
2017-07-19T01:13:58.966Z,17.75
2017-07-19T01:15:08.096Z,17.75
2017-07-19T01:16:17.385Z,17.74
2017-07-19T01:17:26.730Z,17.71
2017-07-19T01:18:36.268Z,17.77
2017-07-19T01:19:45.637Z,17.68
2017-07-19T01:20:54.717Z,17.75
2017-07-19T01:22:03.809Z,17.75
2017-07-19T01:23:12.792Z,17.74
2017-07-19T01:24:21.955Z,17.74
2017-07-19T01:25:31.515Z,17.75
2017-07-19T01:26:40.732Z,17.77
2017-07-19T01:27:49.873Z,17.74
2017-07-19T01:28:59.040Z,17.77
2017-07-19T01:30:08.431Z,17.75
2017-07-19T01:31:17.525Z,17.7
2017-07-19T01:32:26.631Z,17.71
2017-07-19T01:33:35.735Z,17.74
2017-07-19T01:34:45.254Z,17.72
2017-07-19T01:35:54.277Z,17.66
2017-07-19T01:37:03.328Z,17.71
2017-07-19T01:38:12.337Z,17.72
2017-07-19T01:39:21.294Z,17.72
2017-07-19T01:40:30.260Z,17.68
2017-07-19T01:41:39.261Z,17.64
2017-07-19T01:42:48.214Z,17.58
2017-07-19T01:43:57.497Z,17.52
2017-07-19T01:45:06.458Z,17.56
2017-07-19T01:46:15.432Z,17.63
2017-07-19T01:47:24.407Z,17.62
2017-07-19T01:48:33.369Z,17.56
2017-07-19T01:49:42.661Z,17.58
2017-07-19T01:50:51.945Z,17.62
2017-07-19T01:52:00.915Z,17.55
2017-07-19T01:53:09.888Z,17.52
2017-07-19T01:54:18.848Z,17.52
2017-07-19T01:55:27.805Z,17.56
2017-07-19T01:56:36.759Z,17.54
2017-07-19T01:57:45.720Z,17.63
2017-07-19T01:58:54.684Z,17.58
2017-07-19T02:00:03.635Z,17.58
2017-07-19T02:01:12.919Z,17.62
2017-07-19T02:02:22.204Z,17.52
2017-07-19T02:03:31.507Z,17.48
2017-07-19T02:04:40.461Z,17.51
2017-07-19T02:05:49.426Z,17.46
2017-07-19T02:06:58.383Z,17.59
2017-07-19T02:08:07.676Z,17.58
2017-07-19T02:09:16.650Z,17.63
2017-07-19T02:10:25.606Z,17.63
2017-07-19T02:11:34.893Z,17.58
2017-07-19T02:12:43.857Z,17.62
2017-07-19T02:13:52.854Z,17.55
2017-07-19T02:15:01.815Z,17.56
2017-07-19T02:16:10.790Z,17.44
2017-07-19T02:17:19.761Z,17.51
2017-07-19T02:18:28.724Z,17.51
2017-07-19T02:19:37.679Z,17.49
2017-07-19T02:20:46.636Z,17.51
2017-07-19T02:21:55.590Z,17.56
2017-07-19T02:23:04.560Z,17.56
2017-07-19T02:24:13.511Z,17.54
2017-07-19T02:25:22.468Z,17.41
2017-07-19T02:26:31.756Z,17.46
2017-07-19T02:27:40.715Z,17.41
2017-07-19T02:28:49.678Z,17.4
2017-07-19T02:29:58.641Z,17.43
2017-07-19T02:31:07.597Z,17.43
2017-07-19T02:32:16.563Z,17.41
2017-07-19T02:33:25.521Z,17.41
2017-07-19T02:34:34.491Z,17.4
2017-07-19T02:35:43.771Z,17.46
2017-07-19T02:36:52.750Z,17.44
2017-07-19T02:38:01.714Z,17.33
2017-07-19T02:39:10.675Z,17.36
2017-07-19T02:40:19.647Z,17.36
2017-07-19T02:41:28.611Z,17.4
2017-07-19T02:42:37.571Z,17.37
2017-07-19T02:43:46.539Z,17.41
2017-07-19T02:44:55.498Z,17.37
2017-07-19T02:46:04.465Z,17.28
2017-07-19T02:47:13.439Z,17.3
2017-07-19T02:48:22.397Z,17.26
2017-07-19T02:49:31.355Z,17.21
2017-07-19T02:50:40.636Z,17.15
2017-07-19T02:51:49.606Z,17.21
2017-07-19T02:52:58.573Z,17.23
2017-07-19T02:54:07.534Z,17.19
2017-07-19T02:55:16.493Z,17.22
2017-07-19T02:56:25.453Z,17.23
2017-07-19T02:57:34.410Z,17.16
2017-07-19T02:58:43.369Z,17.16
2017-07-19T02:59:52.326Z,17.15
2017-07-19T03:01:01.297Z,17.16
2017-07-19T03:02:10.270Z,17.22
2017-07-19T03:03:19.223Z,17.21
2017-07-19T03:04:28.176Z,17.15
2017-07-19T03:05:37.121Z,17.18
2017-07-19T03:06:46.087Z,17.15
2017-07-19T03:07:55.039Z,17.06
2017-07-19T03:09:04.010Z,17.12
2017-07-19T03:10:12.974Z,17.12
2017-07-19T03:11:21.928Z,17.12
2017-07-19T03:12:30.886Z,17.04
2017-07-19T03:13:39.849Z,16.98
2017-07-19T03:14:48.801Z,16.98
2017-07-19T03:15:57.761Z,16.96
2017-07-19T03:17:06.727Z,16.96
2017-07-19T03:18:15.688Z,16.93
2017-07-19T03:19:24.645Z,16.85
2017-07-19T03:20:33.919Z,16.86
2017-07-19T03:21:42.884Z,16.91
2017-07-19T03:22:51.849Z,16.89
2017-07-19T03:24:00.813Z,16.85
2017-07-19T03:25:10.133Z,16.89
2017-07-19T03:26:19.090Z,16.93
2017-07-19T03:27:28.450Z,16.96
2017-07-19T03:28:37.408Z,16.86
2017-07-19T03:29:46.354Z,16.89
2017-07-19T03:30:55.313Z,16.94
2017-07-19T03:32:04.265Z,16.98
2017-07-19T03:33:13.227Z,16.91
2017-07-19T03:34:22.188Z,16.86
2017-07-19T03:35:31.149Z,16.85
2017-07-19T03:36:40.117Z,16.82
2017-07-19T03:37:49.072Z,16.83
2017-07-19T03:38:58.034Z,16.81
2017-07-19T03:40:06.992Z,16.88
2017-07-19T03:41:15.952Z,16.83
2017-07-19T03:42:25.242Z,16.86
2017-07-19T03:43:34.523Z,16.85
2017-07-19T03:44:43.481Z,16.86
2017-07-19T03:45:53.095Z,16.89
2017-07-19T03:47:02.379Z,16.89
2017-07-19T03:48:11.341Z,16.88
2017-07-19T03:49:20.313Z,16.89
2017-07-19T03:50:29.276Z,16.93
2017-07-19T03:51:38.241Z,16.89
2017-07-19T03:52:47.199Z,16.93
2017-07-19T03:53:56.165Z,16.96
2017-07-19T03:55:05.134Z,16.96
2017-07-19T03:56:14.420Z,16.96
2017-07-19T03:57:23.380Z,16.86
2017-07-19T03:58:32.668Z,16.94
2017-07-19T03:59:41.630Z,17.01
2017-07-19T04:00:50.913Z,17
2017-07-19T04:01:59.892Z,16.97
2017-07-19T04:03:08.855Z,16.96
2017-07-19T04:04:17.809Z,16.96
2017-07-19T04:05:26.773Z,16.98
2017-07-19T04:06:35.730Z,17.11
2017-07-19T04:07:44.691Z,17
2017-07-19T04:08:53.650Z,17.06
2017-07-19T04:10:02.610Z,17.03
2017-07-19T04:11:11.566Z,17.11
2017-07-19T04:12:20.524Z,17.14
2017-07-19T04:13:29.492Z,17.16
2017-07-19T04:14:38.461Z,17.15
2017-07-19T04:15:47.432Z,17.26
2017-07-19T04:16:56.717Z,17.22
2017-07-19T04:18:05.681Z,17.25
2017-07-19T04:19:14.642Z,17.25
2017-07-19T04:20:23.604Z,17.28
2017-07-19T04:21:32.886Z,17.37
2017-07-19T04:22:41.843Z,17.34
2017-07-19T04:23:50.805Z,17.37
2017-07-19T04:24:59.770Z,17.41
2017-07-19T04:26:09.062Z,17.43
2017-07-19T04:27:18.036Z,17.46
2017-07-19T04:28:27.005Z,17.44
2017-07-19T04:29:35.967Z,17.43
2017-07-19T04:30:44.933Z,17.4
2017-07-19T04:31:53.888Z,17.38
2017-07-19T04:33:02.852Z,17.41
2017-07-19T04:34:12.142Z,17.48
2017-07-19T04:35:21.106Z,17.51
2017-07-19T04:36:30.065Z,17.51
2017-07-19T04:37:39.024Z,17.46
2017-07-19T04:38:47.987Z,17.63
2017-07-19T04:39:56.964Z,17.63
2017-07-19T04:41:06.575Z,17.63
2017-07-19T04:42:15.540Z,17.58
2017-07-19T04:43:24.489Z,17.63
2017-07-19T04:44:33.454Z,17.7
2017-07-19T04:45:42.408Z,17.66
2017-07-19T04:46:51.361Z,17.71
2017-07-19T04:48:00.314Z,17.66
2017-07-19T04:49:09.270Z,17.71
2017-07-19T04:50:18.227Z,17.56
2017-07-19T04:51:27.192Z,17.68
2017-07-19T04:52:36.159Z,17.68
2017-07-19T04:53:45.118Z,17.79
2017-07-19T04:54:54.076Z,17.62
2017-07-19T04:56:03.035Z,17.75
2017-07-19T04:57:12.003Z,17.72
2017-07-19T04:58:20.959Z,17.74
2017-07-19T04:59:29.916Z,17.75
2017-07-19T05:00:39.285Z,17.75
2017-07-19T05:01:48.240Z,17.75
2017-07-19T05:02:57.206Z,17.7
2017-07-19T05:04:06.165Z,17.74
2017-07-19T05:05:15.121Z,17.74
2017-07-19T05:06:24.404Z,17.74
2017-07-19T05:07:33.359Z,17.74
2017-07-19T05:08:42.314Z,17.87
2017-07-19T05:09:51.268Z,17.74
2017-07-19T05:11:00.224Z,17.87
2017-07-19T05:12:09.181Z,17.79
2017-07-19T05:13:18.132Z,17.78
2017-07-19T05:14:27.096Z,17.86
2017-07-19T05:15:36.062Z,17.82
2017-07-19T05:16:45.346Z,17.92
2017-07-19T05:17:54.519Z,17.92
2017-07-19T05:19:03.884Z,17.93
2017-07-19T05:20:12.891Z,17.9
2017-07-19T05:21:21.935Z,17.99
2017-07-19T05:22:31.338Z,18.03
2017-07-19T05:23:40.535Z,18.07
2017-07-19T05:24:49.842Z,18.02
2017-07-19T05:25:58.981Z,18.12
2017-07-19T05:27:08.316Z,18.11
2017-07-19T05:28:17.334Z,18.12
2017-07-19T05:29:26.408Z,18.14
2017-07-19T05:30:35.434Z,18.21
2017-07-19T05:31:44.477Z,18.29
2017-07-19T05:32:53.684Z,18.27
2017-07-19T05:34:02.970Z,18.23
2017-07-19T05:35:12.090Z,18.35
2017-07-19T05:36:21.268Z,18.32
2017-07-19T05:37:30.293Z,18.33
2017-07-19T05:38:39.427Z,18.42
2017-07-19T05:39:48.378Z,18.36
2017-07-19T05:40:57.482Z,18.52
2017-07-19T05:42:06.947Z,18.41
2017-07-19T05:43:16.160Z,18.47
2017-07-19T05:44:25.119Z,18.44
2017-07-19T05:45:34.466Z,18.51
2017-07-19T05:46:43.420Z,18.55
2017-07-19T05:47:52.382Z,18.54
2017-07-19T05:49:01.664Z,18.62
2017-07-19T05:50:10.625Z,18.63
2017-07-19T05:51:19.579Z,18.65
2017-07-19T05:52:28.546Z,18.62
2017-07-19T05:53:37.500Z,18.69
2017-07-19T05:54:46.457Z,18.67
2017-07-19T05:55:55.441Z,18.67
2017-07-19T05:57:04.398Z,18.78
2017-07-19T05:58:13.680Z,18.75
2017-07-19T05:59:22.640Z,18.81
2017-07-19T06:00:31.596Z,18.85
2017-07-19T06:01:40.566Z,18.94
2017-07-19T06:02:49.551Z,18.98
2017-07-19T06:03:58.523Z,19.02
2017-07-19T06:05:07.502Z,18.99
2017-07-19T06:06:16.791Z,19.04
2017-07-19T06:07:25.748Z,19.08
2017-07-19T06:08:34.705Z,19.19
2017-07-19T06:09:43.671Z,19.25
2017-07-19T06:10:52.961Z,19.14
2017-07-19T06:12:01.931Z,19.23
2017-07-19T06:13:10.888Z,19.28
2017-07-19T06:14:19.848Z,19.29
2017-07-19T06:15:28.834Z,19.32
2017-07-19T06:16:37.803Z,19.39
2017-07-19T06:17:47.084Z,19.48
2017-07-19T06:18:56.049Z,19.37
2017-07-19T06:20:05.022Z,19.5
2017-07-19T06:21:13.980Z,19.5
2017-07-19T06:22:22.934Z,19.63
2017-07-19T06:23:32.267Z,19.62
2017-07-19T06:24:41.224Z,19.65
2017-07-19T06:25:50.181Z,19.68
2017-07-19T06:26:59.156Z,19.71
2017-07-19T06:28:08.119Z,19.65
2017-07-19T06:29:17.079Z,19.63
2017-07-19T06:30:26.036Z,19.8
2017-07-19T06:31:35.005Z,19.73
2017-07-19T06:32:43.974Z,19.81
2017-07-19T06:33:53.254Z,19.83
2017-07-19T06:35:02.555Z,19.88
2017-07-19T06:36:11.905Z,19.96
2017-07-19T06:37:20.866Z,20.05
2017-07-19T06:38:29.820Z,20.08
2017-07-19T06:39:38.782Z,19.98
2017-07-19T06:40:47.743Z,20.1
2017-07-19T06:41:56.705Z,20.14
2017-07-19T06:43:05.665Z,20.17
2017-07-19T06:44:14.630Z,20.31
2017-07-19T06:45:23.590Z,20.24
2017-07-19T06:46:32.547Z,20.33
2017-07-19T06:47:41.512Z,20.35
2017-07-19T06:48:50.484Z,20.36
2017-07-19T06:49:59.452Z,20.42
2017-07-19T06:51:08.417Z,20.43
2017-07-19T06:52:17.378Z,20.41
2017-07-19T06:53:26.337Z,20.39
2017-07-19T06:54:35.298Z,20.51
2017-07-19T06:55:44.261Z,20.54
2017-07-19T06:56:53.242Z,20.62
2017-07-19T06:58:02.206Z,20.62
2017-07-19T06:59:11.497Z,20.67
2017-07-19T07:00:20.457Z,20.72
2017-07-19T07:01:29.427Z,20.76
2017-07-19T07:02:38.390Z,20.74
2017-07-19T07:03:47.345Z,20.82
2017-07-19T07:04:56.634Z,20.87
2017-07-19T07:06:05.926Z,20.89
2017-07-19T07:07:14.900Z,20.89
2017-07-19T07:08:23.859Z,20.92
2017-07-19T07:09:32.815Z,20.97
2017-07-19T07:10:41.770Z,20.92
2017-07-19T07:11:50.722Z,21.03
2017-07-19T07:12:59.675Z,21.04
2017-07-19T07:14:08.633Z,21.09
2017-07-19T07:15:17.590Z,21.13
2017-07-19T07:16:26.544Z,21.13
2017-07-19T07:17:35.495Z,21.17
2017-07-19T07:18:44.461Z,21.19
2017-07-19T07:19:53.419Z,21.31
2017-07-19T07:21:02.375Z,21.21
2017-07-19T07:22:11.343Z,21.32
2017-07-19T07:23:20.650Z,21.35
2017-07-19T07:24:29.618Z,21.38
2017-07-19T07:25:38.572Z,21.38
2017-07-19T07:26:47.529Z,21.46
2017-07-19T07:27:56.495Z,21.49
2017-07-19T07:29:05.456Z,21.54
2017-07-19T07:30:14.430Z,21.58
2017-07-19T07:31:23.384Z,21.59
2017-07-19T07:32:32.676Z,21.59
2017-07-19T07:33:41.635Z,21.56
2017-07-19T07:34:50.600Z,21.62
2017-07-19T07:35:59.565Z,21.69
2017-07-19T07:37:08.527Z,21.77
2017-07-19T07:38:17.496Z,21.69
2017-07-19T07:39:26.784Z,21.75
2017-07-19T07:40:35.740Z,21.8
2017-07-19T07:41:45.020Z,21.82
2017-07-19T07:42:53.973Z,21.86
2017-07-19T07:44:02.929Z,21.98
2017-07-19T07:45:11.889Z,22
2017-07-19T07:46:20.839Z,21.96
2017-07-19T07:47:30.143Z,22.02
2017-07-19T07:48:39.113Z,22.06
2017-07-19T07:49:48.393Z,22.15
2017-07-19T07:50:57.355Z,22.1
2017-07-19T07:52:06.651Z,22.18
2017-07-19T07:53:15.604Z,22.27
2017-07-19T07:54:24.578Z,22.22
2017-07-19T07:55:34.211Z,22.36
2017-07-19T07:56:43.170Z,22.33
2017-07-19T07:57:52.137Z,22.33
2017-07-19T07:59:01.097Z,22.45
2017-07-19T08:00:10.064Z,22.54
2017-07-19T08:01:19.136Z,22.52
2017-07-19T08:02:28.099Z,22.58
2017-07-19T08:03:37.105Z,22.62
2017-07-19T08:04:46.073Z,22.65
2017-07-19T08:05:55.041Z,22.75
2017-07-19T08:07:04.318Z,22.72
2017-07-19T08:08:13.289Z,22.76
2017-07-19T08:09:22.261Z,22.72
2017-07-19T08:10:31.225Z,22.77
2017-07-19T08:11:40.500Z,22.75
2017-07-19T08:12:49.479Z,22.85
2017-07-19T08:13:58.438Z,22.9
2017-07-19T08:15:07.733Z,22.86
2017-07-19T08:16:16.706Z,22.79
2017-07-19T08:17:25.700Z,22.97
2017-07-19T08:18:34.670Z,22.92
2017-07-19T08:19:43.640Z,22.91
2017-07-19T08:20:52.607Z,22.91
2017-07-19T08:22:01.574Z,22.94
2017-07-19T08:23:10.560Z,22.98
2017-07-19T08:24:19.526Z,23.09
2017-07-19T08:25:28.487Z,23.04
2017-07-19T08:26:37.457Z,23.04
2017-07-19T08:27:46.429Z,23.07
2017-07-19T08:28:55.386Z,23.12
2017-07-19T08:30:04.353Z,23.17
2017-07-19T08:31:13.323Z,23.2
2017-07-19T08:32:22.619Z,23.31
2017-07-19T08:33:31.582Z,23.31
2017-07-19T08:34:40.554Z,23.31
2017-07-19T08:35:49.514Z,23.38
2017-07-19T08:36:58.474Z,23.46
2017-07-19T08:38:07.444Z,23.5
2017-07-19T08:39:16.431Z,23.53
2017-07-19T08:40:25.399Z,23.65
2017-07-19T08:41:34.684Z,23.58
2017-07-19T08:42:43.649Z,23.7
2017-07-19T08:43:52.609Z,23.75
2017-07-19T08:45:01.575Z,23.85
2017-07-19T08:46:10.552Z,23.87
2017-07-19T08:47:19.787Z,23.91
2017-07-19T08:48:30.382Z,23.98
2017-07-19T08:49:39.489Z,23.95
2017-07-19T08:50:48.505Z,24.06
2017-07-19T08:51:57.488Z,24.12
2017-07-19T08:53:06.482Z,24.13
2017-07-19T08:54:15.472Z,24.15
2017-07-19T08:55:24.462Z,24.16
2017-07-19T08:56:33.472Z,24.27
2017-07-19T08:57:42.468Z,24.27
2017-07-19T08:58:51.444Z,24.24
2017-07-19T09:00:00.433Z,24.28
2017-07-19T09:01:09.422Z,24.42
2017-07-19T09:02:18.410Z,24.42
2017-07-19T09:03:27.420Z,24.47
2017-07-19T09:04:36.398Z,24.39
2017-07-19T09:05:45.384Z,24.5
2017-07-19T09:06:54.705Z,24.52
2017-07-19T09:08:04.036Z,24.58
2017-07-19T09:09:13.350Z,24.61
2017-07-19T09:10:22.337Z,24.58
2017-07-19T09:11:31.326Z,24.53
2017-07-19T09:12:40.656Z,24.61
2017-07-19T09:13:49.648Z,24.61
2017-07-19T09:14:58.671Z,24.64
2017-07-19T09:16:07.652Z,24.67
2017-07-19T09:17:16.659Z,24.64
2017-07-19T09:18:25.637Z,24.67
2017-07-19T09:19:34.628Z,24.67
2017-07-19T09:20:43.633Z,24.61
2017-07-19T09:21:52.624Z,24.64
2017-07-19T09:23:01.638Z,24.64
2017-07-19T09:24:10.637Z,24.69
2017-07-19T09:25:19.621Z,24.71
2017-07-19T09:26:28.617Z,24.76
2017-07-19T09:27:37.602Z,24.69
2017-07-19T09:28:46.595Z,24.78
2017-07-19T09:29:55.587Z,24.67
2017-07-19T09:31:04.582Z,24.67
2017-07-19T09:32:13.567Z,24.73
2017-07-19T09:33:22.589Z,24.73
2017-07-19T09:34:31.615Z,24.77
2017-07-19T09:35:40.610Z,24.73
2017-07-19T09:36:49.615Z,24.77
2017-07-19T09:37:58.604Z,24.9
2017-07-19T09:39:07.605Z,24.9
2017-07-19T09:40:16.581Z,24.91
2017-07-19T09:41:25.566Z,24.95
2017-07-19T09:42:34.539Z,25
2017-07-19T09:43:43.523Z,25
2017-07-19T09:44:52.486Z,25
2017-07-19T09:46:01.488Z,25.17
2017-07-19T09:47:10.774Z,25.17
2017-07-19T09:48:19.739Z,25.13
2017-07-19T09:49:28.707Z,25.06
2017-07-19T09:50:37.685Z,25.13
2017-07-19T09:51:46.661Z,25.15
2017-07-19T09:52:55.622Z,25.14
2017-07-19T09:54:04.591Z,25.17
2017-07-19T09:55:13.557Z,25.21
2017-07-19T09:56:22.547Z,25.24
2017-07-19T09:57:31.522Z,25.23
2017-07-19T09:58:40.481Z,25.23
2017-07-19T09:59:49.443Z,25.23
2017-07-19T10:00:58.406Z,25.25
2017-07-19T10:02:07.692Z,25.27
2017-07-19T10:03:16.664Z,25.36
2017-07-19T10:04:25.633Z,25.36
2017-07-19T10:05:34.603Z,25.46
2017-07-19T10:06:43.576Z,25.42
2017-07-19T10:07:52.870Z,25.45
2017-07-19T10:09:01.832Z,25.42
2017-07-19T10:10:10.797Z,25.47
2017-07-19T10:11:19.759Z,25.47
2017-07-19T10:12:28.734Z,25.51
2017-07-19T10:13:37.730Z,25.51
2017-07-19T10:14:46.695Z,25.54
2017-07-19T10:15:55.975Z,25.57
2017-07-19T10:17:04.945Z,25.61
2017-07-19T10:18:13.910Z,25.51
2017-07-19T10:19:23.199Z,25.72
2017-07-19T10:20:32.171Z,25.72
2017-07-19T10:21:41.147Z,25.7
2017-07-19T10:22:50.112Z,25.85
2017-07-19T10:23:59.066Z,25.82
2017-07-19T10:25:08.044Z,25.73
2017-07-19T10:26:17.317Z,25.77
2017-07-19T10:27:26.278Z,25.8
2017-07-19T10:28:35.236Z,25.85
2017-07-19T10:29:44.530Z,25.91
2017-07-19T10:30:53.496Z,25.97
2017-07-19T10:32:02.460Z,25.9
2017-07-19T10:33:11.748Z,25.9
2017-07-19T10:34:20.711Z,25.94
2017-07-19T10:35:30.009Z,25.97
2017-07-19T10:36:38.966Z,26.02
2017-07-19T10:37:47.936Z,25.98
2017-07-19T10:38:57.228Z,26.05
2017-07-19T10:40:06.199Z,26.1
2017-07-19T10:41:15.183Z,26.1
2017-07-19T10:42:24.150Z,26.09
2017-07-19T10:43:33.120Z,26.13
2017-07-19T10:44:42.089Z,26.13
2017-07-19T10:45:51.045Z,26.21
2017-07-19T10:47:00.006Z,26.17
2017-07-19T10:48:08.977Z,26.18
2017-07-19T10:49:17.940Z,26.18
2017-07-19T10:50:26.925Z,26.05
2017-07-19T10:51:35.886Z,26.17
2017-07-19T10:52:44.850Z,26.2
2017-07-19T10:53:53.814Z,26.09
2017-07-19T10:55:02.776Z,26.18
2017-07-19T10:56:11.746Z,26.21
2017-07-19T10:57:20.708Z,26.21
2017-07-19T10:58:29.673Z,26.25
2017-07-19T10:59:38.629Z,26.2
2017-07-19T11:00:47.591Z,26.28
2017-07-19T11:01:56.551Z,26.32
2017-07-19T11:03:05.517Z,26.21
2017-07-19T11:04:14.490Z,26.26
2017-07-19T11:05:23.449Z,26.28
2017-07-19T11:06:32.411Z,26.18
2017-07-19T11:07:41.391Z,26.25
2017-07-19T11:08:50.354Z,26.29
2017-07-19T11:09:59.314Z,26.18
2017-07-19T11:11:08.290Z,26.26
2017-07-19T11:12:17.574Z,26.25
2017-07-19T11:13:26.533Z,26.37
2017-07-19T11:14:35.492Z,26.2
2017-07-19T11:15:44.453Z,26.29
2017-07-19T11:16:53.411Z,26.26
2017-07-19T11:18:02.702Z,26.23
2017-07-19T11:19:11.987Z,26.25
2017-07-19T11:20:20.972Z,26.3
2017-07-19T11:21:29.946Z,26.35
2017-07-19T11:22:38.898Z,26.28
2017-07-19T11:23:47.865Z,26.32
2017-07-19T11:24:56.822Z,26.29
2017-07-19T11:26:05.837Z,26.44
2017-07-19T11:27:14.807Z,26.4
2017-07-19T11:28:23.761Z,26.45
2017-07-19T11:29:32.726Z,26.48
2017-07-19T11:30:41.693Z,26.45
2017-07-19T11:31:50.668Z,26.51
2017-07-19T11:32:59.630Z,26.51
2017-07-19T11:34:08.592Z,26.5
2017-07-19T11:35:17.559Z,26.51
2017-07-19T11:36:26.521Z,26.48
2017-07-19T11:37:35.480Z,26.48
2017-07-19T11:38:44.468Z,26.43
2017-07-19T11:39:53.433Z,26.5
2017-07-19T11:41:02.740Z,26.44
2017-07-19T11:42:17.306Z,26.43
2017-07-19T11:43:36.476Z,26.43
2017-07-19T11:44:56.420Z,26.43
2017-07-19T11:46:15.859Z,26.43
2017-07-19T11:47:29.265Z,26.48
2017-07-19T11:48:40.132Z,26.45
2017-07-19T11:49:50.611Z,26.44
2017-07-19T11:50:59.834Z,26.45
2017-07-19T11:52:08.804Z,26.39
2017-07-19T11:53:17.770Z,26.48
2017-07-19T11:54:26.736Z,26.6
2017-07-19T11:55:36.013Z,26.54
2017-07-19T11:56:44.981Z,26.57
2017-07-19T11:57:54.264Z,26.55
2017-07-19T11:59:03.239Z,26.44
2017-07-19T12:00:12.220Z,26.44
2017-07-19T12:01:21.193Z,26.36
2017-07-19T12:02:30.164Z,26.36
2017-07-19T12:03:39.126Z,26.33
2017-07-19T12:04:48.095Z,26.23
2017-07-19T12:05:57.058Z,26.28
2017-07-19T12:07:06.026Z,26.21
2017-07-19T12:08:14.987Z,26.21
2017-07-19T12:09:23.946Z,26.21
2017-07-19T12:10:32.901Z,26.13
2017-07-19T12:11:41.855Z,26.15
2017-07-19T12:12:50.840Z,26.12
2017-07-19T12:13:59.804Z,26.18
2017-07-19T12:15:08.777Z,26.23
2017-07-19T12:16:17.767Z,26.23
2017-07-19T12:17:27.365Z,26.21
2017-07-19T12:18:36.324Z,26.29
2017-07-19T12:19:45.287Z,26.28
2017-07-19T12:20:54.575Z,26.23
2017-07-19T12:22:03.538Z,26.2
2017-07-19T12:23:12.499Z,26.1
2017-07-19T12:24:21.460Z,26.17
2017-07-19T12:25:30.429Z,26.2
2017-07-19T12:26:39.399Z,26.28
2017-07-19T12:27:48.360Z,26.23
2017-07-19T12:28:57.331Z,26.3
2017-07-19T12:30:06.303Z,26.21
2017-07-19T12:31:15.264Z,26.15
2017-07-19T12:32:24.549Z,26.13
2017-07-19T12:33:33.508Z,26.13
2017-07-19T12:34:42.464Z,26.09
2017-07-19T12:35:51.429Z,26.09
2017-07-19T12:37:00.398Z,26.13
2017-07-19T12:38:09.360Z,26.18
2017-07-19T12:39:18.329Z,26.1
2017-07-19T12:40:27.610Z,26.13
2017-07-19T12:41:36.578Z,25.98
2017-07-19T12:42:45.535Z,25.97
2017-07-19T12:43:54.494Z,25.92
2017-07-19T12:45:03.459Z,25.97
2017-07-19T12:46:12.420Z,26.12
2017-07-19T12:47:21.703Z,26.12
2017-07-19T12:48:30.671Z,26.18
2017-07-19T12:49:39.636Z,26.1
2017-07-19T12:50:48.616Z,26.05
2017-07-19T12:51:57.575Z,26.05
2017-07-19T12:53:06.540Z,26.05
2017-07-19T12:54:15.833Z,26.05
2017-07-19T12:55:25.115Z,26.05
2017-07-19T12:56:34.104Z,25.99
2017-07-19T12:57:43.056Z,25.99
2017-07-19T12:58:52.015Z,25.97
2017-07-19T13:00:00.979Z,25.97
2017-07-19T13:01:10.281Z,26.01
2017-07-19T13:02:19.244Z,26.01
2017-07-19T13:03:28.234Z,25.99
2017-07-19T13:04:37.194Z,25.95
2017-07-19T13:05:46.499Z,25.88
2017-07-19T13:06:55.736Z,25.9
2017-07-19T13:08:04.731Z,25.97
2017-07-19T13:09:13.884Z,25.98
2017-07-19T13:10:23.225Z,26.01
2017-07-19T13:11:32.177Z,26.06
2017-07-19T13:12:41.142Z,26.09
2017-07-19T13:13:50.105Z,26.09
2017-07-19T13:14:59.063Z,26.17
2017-07-19T13:16:08.029Z,26.21
2017-07-19T13:17:16.989Z,26.26
2017-07-19T13:18:25.954Z,26.15
2017-07-19T13:19:35.233Z,26.18
2017-07-19T13:20:44.196Z,26.39
2017-07-19T13:21:53.153Z,26.3
2017-07-19T13:23:02.129Z,26.4
2017-07-19T13:24:11.087Z,26.45
2017-07-19T13:25:20.049Z,26.45
2017-07-19T13:26:29.013Z,26.44
2017-07-19T13:27:37.979Z,26.44
2017-07-19T13:28:46.944Z,26.47
2017-07-19T13:29:55.916Z,26.43
2017-07-19T13:31:04.885Z,26.45
2017-07-19T13:32:14.174Z,26.47
2017-07-19T13:33:23.476Z,26.4
2017-07-19T13:34:32.430Z,26.5
2017-07-19T13:35:41.402Z,26.55
2017-07-19T13:36:50.368Z,26.55
2017-07-19T13:37:59.325Z,26.55
2017-07-19T13:39:08.551Z,26.55
2017-07-19T13:40:17.520Z,26.55
2017-07-19T13:41:26.484Z,26.58
2017-07-19T13:42:35.448Z,26.6
2017-07-19T13:43:44.438Z,26.55
2017-07-19T13:44:53.401Z,26.6
2017-07-19T13:46:02.371Z,26.7
2017-07-19T13:47:11.332Z,26.6
2017-07-19T13:48:20.611Z,26.67
2017-07-19T13:49:29.578Z,26.57
2017-07-19T13:50:38.582Z,26.52
2017-07-19T13:51:47.550Z,26.57
2017-07-19T13:52:56.506Z,26.54
2017-07-19T13:54:05.474Z,26.47
2017-07-19T13:55:14.444Z,26.47
2017-07-19T13:56:23.413Z,26.44
2017-07-19T13:57:32.380Z,26.35
2017-07-19T13:58:41.364Z,26.33
2017-07-19T13:59:50.331Z,26.32
2017-07-19T14:00:59.311Z,26.32
2017-07-19T14:02:08.291Z,26.25
2017-07-19T14:03:17.260Z,26.36
2017-07-19T14:04:26.224Z,26.21
2017-07-19T14:05:35.517Z,26.2
2017-07-19T14:06:44.474Z,26.3
2017-07-19T14:07:53.429Z,26.25
2017-07-19T14:09:02.718Z,26.28
2017-07-19T14:10:11.688Z,26.23
2017-07-19T14:11:20.655Z,26.25
2017-07-19T14:12:29.623Z,26.2
2017-07-19T14:13:38.588Z,26.18
2017-07-19T14:14:47.542Z,26.07
2017-07-19T14:15:57.120Z,26.09
2017-07-19T14:17:06.951Z,26.09
2017-07-19T14:18:16.240Z,26.13
2017-07-19T14:19:25.525Z,26.17
2017-07-19T14:20:34.487Z,26.21
2017-07-19T14:21:43.453Z,26.25
2017-07-19T14:22:53.080Z,26.17
2017-07-19T14:24:02.060Z,26.29
2017-07-19T14:25:11.041Z,26.29
2017-07-19T14:26:20.031Z,26.28
2017-07-19T14:27:29.340Z,26.23
2017-07-19T14:28:38.331Z,26.23
2017-07-19T14:29:47.655Z,26.25
2017-07-19T14:30:56.962Z,26.2
2017-07-19T14:32:05.964Z,26.23
2017-07-19T14:33:14.950Z,26.18
2017-07-19T14:34:23.931Z,26.32
2017-07-19T14:35:32.927Z,26.36
2017-07-19T14:36:41.921Z,26.45
2017-07-19T14:37:50.919Z,26.52
2017-07-19T14:38:59.916Z,26.54
2017-07-19T14:40:08.913Z,26.58
2017-07-19T14:41:17.912Z,26.62
2017-07-19T14:42:27.223Z,26.6
2017-07-19T14:43:36.206Z,26.6
2017-07-19T14:44:45.193Z,26.58
2017-07-19T14:45:54.180Z,26.6
2017-07-19T14:47:03.170Z,26.6
2017-07-19T14:48:12.163Z,26.55
2017-07-19T14:49:21.151Z,26.6
2017-07-19T14:50:30.138Z,26.66
2017-07-19T14:51:39.123Z,26.55
2017-07-19T14:52:48.111Z,26.62